sensor_id;sensor_type;location;lat;lon;timestamp;P1;P2;P0
57049;PMS7003;42935;50.966;16.992;2024-02-26T00:02:00;58;42;29
57049;PMS7003;42935;50.966;16.992;2024-02-26T00:05:29;64;41;25
57049;PMS7003;42935;50.966;16.992;2024-02-26T00:08:59;67;47;30
57049;PMS7003;42935;50.966;16.992;2024-02-26T00:12:35;67;48;30
57049;PMS7003;42935;50.966;16.992;2024-02-26T00:15:59;53;35;22
57049;PMS7003;42935;50.966;16.992;2024-02-26T00:19:21;57;41;26
57049;PMS7003;42935;50.966;16.992;2024-02-26T00:22:43;53;40;25
57049;PMS7003;42935;50.966;16.992;2024-02-26T00:26:07;52;41;27
57049;PMS7003;42935;50.966;16.992;2024-02-26T00:29:36;51;35;21
57049;PMS7003;42935;50.966;16.992;2024-02-26T00:33:03;57;39;24
57049;PMS7003;42935;50.966;16.992;2024-02-26T00:36:34;50;35;22
57049;PMS7003;42935;50.966;16.992;2024-02-26T00:39:57;52;38;24
57049;PMS7003;42935;50.966;16.992;2024-02-26T00:43:19;43;32;18
57049;PMS7003;42935;50.966;16.992;2024-02-26T00:46:44;57;33;20
57049;PMS7003;42935;50.966;16.992;2024-02-26T00:50:05;43;30;20
57049;PMS7003;42935;50.966;16.992;2024-02-26T00:54:01;61;43;28
57049;PMS7003;42935;50.966;16.992;2024-02-26T00:57:22;46;33;23
57049;PMS7003;42935;50.966;16.992;2024-02-26T01:00:43;55;39;25
57049;PMS7003;42935;50.966;16.992;2024-02-26T01:04:03;51;34;23
57049;PMS7003;42935;50.966;16.992;2024-02-26T01:07:23;45;33;19
57049;PMS7003;42935;50.966;16.992;2024-02-26T01:10:44;55;35;22
57049;PMS7003;42935;50.966;16.992;2024-02-26T01:14:09;50;35;22
57049;PMS7003;42935;50.966;16.992;2024-02-26T01:17:37;53;37;22
57049;PMS7003;42935;50.966;16.992;2024-02-26T01:21:03;52;34;22
57049;PMS7003;42935;50.966;16.992;2024-02-26T01:24:39;59;42;26
57049;PMS7003;42935;50.966;16.992;2024-02-26T01:28:07;51;38;23
57049;PMS7003;42935;50.966;16.992;2024-02-26T01:31:27;48;38;23
57049;PMS7003;42935;50.966;16.992;2024-02-26T01:34:50;53;35;19
57049;PMS7003;42935;50.966;16.992;2024-02-26T01:38:12;57;40;25
57049;PMS7003;42935;50.966;16.992;2024-02-26T01:41:33;55;39;25
57049;PMS7003;42935;50.966;16.992;2024-02-26T01:44:51;36;28;20
57049;PMS7003;42935;50.966;16.992;2024-02-26T01:48:10;33;25;16
57049;PMS7003;42935;50.966;16.992;2024-02-26T01:51:35;32;23;16
57049;PMS7003;42935;50.966;16.992;2024-02-26T01:55:00;31;20;12
57049;PMS7003;42935;50.966;16.992;2024-02-26T01:58:19;25;20;13
57049;PMS7003;42935;50.966;16.992;2024-02-26T02:01:43;34;25;16
57049;PMS7003;42935;50.966;16.992;2024-02-26T02:05:06;38;26;17
57049;PMS7003;42935;50.966;16.992;2024-02-26T02:08:36;45;32;20
57049;PMS7003;42935;50.966;16.992;2024-02-26T02:12:02;44;30;20
57049;PMS7003;42935;50.966;16.992;2024-02-26T02:15:24;44;33;21
57049;PMS7003;42935;50.966;16.992;2024-02-26T02:18:49;52;34;20
57049;PMS7003;42935;50.966;16.992;2024-02-26T02:22:10;42;33;21
57049;PMS7003;42935;50.966;16.992;2024-02-26T02:25:36;48;32;21
57049;PMS7003;42935;50.966;16.992;2024-02-26T02:28:58;44;31;21
57049;PMS7003;42935;50.966;16.992;2024-02-26T02:32:20;45;30;21
57049;PMS7003;42935;50.966;16.992;2024-02-26T02:35:42;49;37;24
57049;PMS7003;42935;50.966;16.992;2024-02-26T02:39:03;35;28;18
57049;PMS7003;42935;50.966;16.992;2024-02-26T02:42:21;46;28;18
57049;PMS7003;42935;50.966;16.992;2024-02-26T02:45:45;41;31;20
57049;PMS7003;42935;50.966;16.992;2024-02-26T02:49:08;48;35;22
57049;PMS7003;42935;50.966;16.992;2024-02-26T02:53:07;55;40;26
57049;PMS7003;42935;50.966;16.992;2024-02-26T02:56:28;46;34;21
57049;PMS7003;42935;50.966;16.992;2024-02-26T02:59:50;46;34;22
57049;PMS7003;42935;50.966;16.992;2024-02-26T03:03:14;42;32;20
57049;PMS7003;42935;50.966;16.992;2024-02-26T03:06:30;38;28;19
57049;PMS7003;42935;50.966;16.992;2024-02-26T03:09:54;48;32;19
57049;PMS7003;42935;50.966;16.992;2024-02-26T03:13:18;74;49;30
57049;PMS7003;42935;50.966;16.992;2024-02-26T03:16:38;68;46;29
57049;PMS7003;42935;50.966;16.992;2024-02-26T03:20:03;58;44;28
57049;PMS7003;42935;50.966;16.992;2024-02-26T03:23:26;67;47;29
57049;PMS7003;42935;50.966;16.992;2024-02-26T03:26:50;61;45;27
57049;PMS7003;42935;50.966;16.992;2024-02-26T03:30:19;69;48;30
57049;PMS7003;42935;50.966;16.992;2024-02-26T03:33:42;58;41;25
57049;PMS7003;42935;50.966;16.992;2024-02-26T03:37:03;51;38;24
57049;PMS7003;42935;50.966;16.992;2024-02-26T03:40:25;41;33;22
57049;PMS7003;42935;50.966;16.992;2024-02-26T03:43:47;41;29;18
57049;PMS7003;42935;50.966;16.992;2024-02-26T03:47:16;51;38;24
57049;PMS7003;42935;50.966;16.992;2024-02-26T03:50:40;45;33;19
57049;PMS7003;42935;50.966;16.992;2024-02-26T03:54:00;68;49;30
57049;PMS7003;42935;50.966;16.992;2024-02-26T03:57:22;57;41;24
57049;PMS7003;42935;50.966;16.992;2024-02-26T04:00:43;55;36;23
57049;PMS7003;42935;50.966;16.992;2024-02-26T04:04:03;40;31;21
57049;PMS7003;42935;50.966;16.992;2024-02-26T04:07:24;41;31;20
57049;PMS7003;42935;50.966;16.992;2024-02-26T04:10:49;42;31;20
57049;PMS7003;42935;50.966;16.992;2024-02-26T04:14:11;42;31;20
57049;PMS7003;42935;50.966;16.992;2024-02-26T04:17:32;37;28;18
57049;PMS7003;42935;50.966;16.992;2024-02-26T04:20:52;54;36;21
57049;PMS7003;42935;50.966;16.992;2024-02-26T04:24:16;41;34;23
57049;PMS7003;42935;50.966;16.992;2024-02-26T04:28:07;49;36;25
57049;PMS7003;42935;50.966;16.992;2024-02-26T04:31:28;52;35;22
57049;PMS7003;42935;50.966;16.992;2024-02-26T04:34:51;36;28;17
57049;PMS7003;42935;50.966;16.992;2024-02-26T04:38:16;42;32;19
57049;PMS7003;42935;50.966;16.992;2024-02-26T04:41:38;36;27;16
57049;PMS7003;42935;50.966;16.992;2024-02-26T04:44:58;46;27;18
57049;PMS7003;42935;50.966;16.992;2024-02-26T04:48:20;47;29;19
57049;PMS7003;42935;50.966;16.992;2024-02-26T04:51:42;52;37;20
57049;PMS7003;42935;50.966;16.992;2024-02-26T04:55:04;39;26;18
57049;PMS7003;42935;50.966;16.992;2024-02-26T04:58:29;44;31;19
57049;PMS7003;42935;50.966;16.992;2024-02-26T05:01:56;46;32;20
57049;PMS7003;42935;50.966;16.992;2024-02-26T05:05:14;36;31;21
57049;PMS7003;42935;50.966;16.992;2024-02-26T05:08:28;38;25;19
57049;PMS7003;42935;50.966;16.992;2024-02-26T05:11:49;41;31;19
57049;PMS7003;42935;50.966;16.992;2024-02-26T05:15:22;64;43;26
57049;PMS7003;42935;50.966;16.992;2024-02-26T05:18:38;61;34;22
57049;PMS7003;42935;50.966;16.992;2024-02-26T05:22:03;65;44;27
57049;PMS7003;42935;50.966;16.992;2024-02-26T05:25:27;69;49;30
57049;PMS7003;42935;50.966;16.992;2024-02-26T05:28:49;89;59;37
57049;PMS7003;42935;50.966;16.992;2024-02-26T05:32:17;102;67;40
57049;PMS7003;42935;50.966;16.992;2024-02-26T05:35:46;137;88;47
57049;PMS7003;42935;50.966;16.992;2024-02-26T05:39:04;51;33;17
57049;PMS7003;42935;50.966;16.992;2024-02-26T05:42:33;60;41;24
57049;PMS7003;42935;50.966;16.992;2024-02-26T05:46:01;74;49;30
57049;PMS7003;42935;50.966;16.992;2024-02-26T05:49:30;77;52;31
57049;PMS7003;42935;50.966;16.992;2024-02-26T05:52:56;85;59;36
57049;PMS7003;42935;50.966;16.992;2024-02-26T05:56:23;83;57;35
57049;PMS7003;42935;50.966;16.992;2024-02-26T05:59:48;91;65;38
57049;PMS7003;42935;50.966;16.992;2024-02-26T06:03:12;69;51;30
57049;PMS7003;42935;50.966;16.992;2024-02-26T06:06:32;74;49;29
57049;PMS7003;42935;50.966;16.992;2024-02-26T06:10:00;77;54;30
57049;PMS7003;42935;50.966;16.992;2024-02-26T06:13:26;78;54;32
57049;PMS7003;42935;50.966;16.992;2024-02-26T06:16:51;65;45;24
57049;PMS7003;42935;50.966;16.992;2024-02-26T06:20:12;68;49;29
57049;PMS7003;42935;50.966;16.992;2024-02-26T06:23:33;74;51;30
57049;PMS7003;42935;50.966;16.992;2024-02-26T06:26:59;87;61;37
57049;PMS7003;42935;50.966;16.992;2024-02-26T06:30:24;82;57;34
57049;PMS7003;42935;50.966;16.992;2024-02-26T06:33:45;71;50;30
57049;PMS7003;42935;50.966;16.992;2024-02-26T06:37:05;63;39;26
57049;PMS7003;42935;50.966;16.992;2024-02-26T06:40:26;59;36;23
57049;PMS7003;42935;50.966;16.992;2024-02-26T06:43:48;60;43;26
57049;PMS7003;42935;50.966;16.992;2024-02-26T06:47:20;70;48;30
57049;PMS7003;42935;50.966;16.992;2024-02-26T06:50:49;74;52;33
57049;PMS7003;42935;50.966;16.992;2024-02-26T06:54:10;74;50;31
57049;PMS7003;42935;50.966;16.992;2024-02-26T06:57:30;86;61;37
57049;PMS7003;42935;50.966;16.992;2024-02-26T07:00:48;70;47;31
57049;PMS7003;42935;50.966;16.992;2024-02-26T07:04:08;57;43;27
57049;PMS7003;42935;50.966;16.992;2024-02-26T07:08:09;73;51;31
57049;PMS7003;42935;50.966;16.992;2024-02-26T07:11:34;57;40;26
57049;PMS7003;42935;50.966;16.992;2024-02-26T07:15:02;64;42;26
57049;PMS7003;42935;50.966;16.992;2024-02-26T07:18:29;39;30;19
57049;PMS7003;42935;50.966;16.992;2024-02-26T07:21:52;48;33;21
57049;PMS7003;42935;50.966;16.992;2024-02-26T07:25:13;43;28;18
57049;PMS7003;42935;50.966;16.992;2024-02-26T07:28:35;43;27;18
57049;PMS7003;42935;50.966;16.992;2024-02-26T07:31:53;34;22;15
57049;PMS7003;42935;50.966;16.992;2024-02-26T07:35:51;64;40;27
57049;PMS7003;42935;50.966;16.992;2024-02-26T07:39:12;45;32;21
57049;PMS7003;42935;50.966;16.992;2024-02-26T07:42:33;45;32;21
57049;PMS7003;42935;50.966;16.992;2024-02-26T07:45:51;43;32;21
57049;PMS7003;42935;50.966;16.992;2024-02-26T07:49:15;50;36;24
57049;PMS7003;42935;50.966;16.992;2024-02-26T07:52:33;46;34;23
57049;PMS7003;42935;50.966;16.992;2024-02-26T07:56:00;60;42;26
57049;PMS7003;42935;50.966;16.992;2024-02-26T07:59:26;60;41;25
57049;PMS7003;42935;50.966;16.992;2024-02-26T08:02:47;52;36;24
57049;PMS7003;42935;50.966;16.992;2024-02-26T08:06:10;47;34;23
57049;PMS7003;42935;50.966;16.992;2024-02-26T08:09:34;49;36;23
57049;PMS7003;42935;50.966;16.992;2024-02-26T08:13:02;45;34;22
57049;PMS7003;42935;50.966;16.992;2024-02-26T08:16:26;46;31;21
57049;PMS7003;42935;50.966;16.992;2024-02-26T08:19:47;53;36;23
57049;PMS7003;42935;50.966;16.992;2024-02-26T08:23:03;52;37;25
57049;PMS7003;42935;50.966;16.992;2024-02-26T08:26:30;54;38;25
57049;PMS7003;42935;50.966;16.992;2024-02-26T08:29:56;50;37;24
57049;PMS7003;42935;50.966;16.992;2024-02-26T08:33:22;50;37;23
57049;PMS7003;42935;50.966;16.992;2024-02-26T08:36:40;51;37;23
57049;PMS7003;42935;50.966;16.992;2024-02-26T08:40:14;55;39;24
57049;PMS7003;42935;50.966;16.992;2024-02-26T08:43:38;53;39;24
57049;PMS7003;42935;50.966;16.992;2024-02-26T08:47:06;51;37;23
57049;PMS7003;42935;50.966;16.992;2024-02-26T08:50:30;41;33;21
57049;PMS7003;42935;50.966;16.992;2024-02-26T08:54:02;44;33;22
57049;PMS7003;42935;50.966;16.992;2024-02-26T08:57:22;35;30;21
57049;PMS7003;42935;50.966;16.992;2024-02-26T09:25:54;36;28;18
57049;PMS7003;42935;50.966;16.992;2024-02-26T09:29:22;33;27;17
57049;PMS7003;42935;50.966;16.992;2024-02-26T09:32:46;31;25;15
57049;PMS7003;42935;50.966;16.992;2024-02-26T09:36:07;35;26;17
57049;PMS7003;42935;50.966;16.992;2024-02-26T09:39:27;29;25;17
57049;PMS7003;42935;50.966;16.992;2024-02-26T09:43:00;32;27;17
57049;PMS7003;42935;50.966;16.992;2024-02-26T09:46:20;30;25;16
57049;PMS7003;42935;50.966;16.992;2024-02-26T09:49:39;24;19;13
57049;PMS7003;42935;50.966;16.992;2024-02-26T09:53:01;23;21;14
57049;PMS7003;42935;50.966;16.992;2024-02-26T09:56:28;25;22;15
57049;PMS7003;42935;50.966;16.992;2024-02-26T09:59:48;21;19;12
57049;PMS7003;42935;50.966;16.992;2024-02-26T10:03:09;23;20;12
57049;PMS7003;42935;50.966;16.992;2024-02-26T10:07:05;19;17;11
57049;PMS7003;42935;50.966;16.992;2024-02-26T10:10:28;16;15;10
57049;PMS7003;42935;50.966;16.992;2024-02-26T10:13:50;19;15;11
57049;PMS7003;42935;50.966;16.992;2024-02-26T10:17:08;16;14;9
57049;PMS7003;42935;50.966;16.992;2024-02-26T10:20:33;20;15;10
57049;PMS7003;42935;50.966;16.992;2024-02-26T10:23:54;20;13;10
57049;PMS7003;42935;50.966;16.992;2024-02-26T10:27:15;14;13;10
57049;PMS7003;42935;50.966;16.992;2024-02-26T10:30:36;16;14;9
57049;PMS7003;42935;50.966;16.992;2024-02-26T10:34:00;19;16;11
57049;PMS7003;42935;50.966;16.992;2024-02-26T10:37:22;18;13;9
57049;PMS7003;42935;50.966;16.992;2024-02-26T10:40:43;16;12;7
57049;PMS7003;42935;50.966;16.992;2024-02-26T10:44:03;17;14;9
57049;PMS7003;42935;50.966;16.992;2024-02-26T10:47:20;15;12;8
57049;PMS7003;42935;50.966;16.992;2024-02-26T10:50:41;17;12;9
57049;PMS7003;42935;50.966;16.992;2024-02-26T10:54:04;14;12;8
57049;PMS7003;42935;50.966;16.992;2024-02-26T10:57:38;17;11;7
57049;PMS7003;42935;50.966;16.992;2024-02-26T11:01:00;10;10;7
57049;PMS7003;42935;50.966;16.992;2024-02-26T11:04:19;13;10;7
57049;PMS7003;42935;50.966;16.992;2024-02-26T11:07:43;12;9;6
57049;PMS7003;42935;50.966;16.992;2024-02-26T11:11:03;11;8;5
57049;PMS7003;42935;50.966;16.992;2024-02-26T11:14:21;9;6;4
57049;PMS7003;42935;50.966;16.992;2024-02-26T11:17:46;8;7;5
57049;PMS7003;42935;50.966;16.992;2024-02-26T11:21:52;8;7;6
57049;PMS7003;42935;50.966;16.992;2024-02-26T11:25:30;10;7;5
57049;PMS7003;42935;50.966;16.992;2024-02-26T11:29:22;7;7;5
57049;PMS7003;42935;50.966;16.992;2024-02-26T11:32:44;7;7;5
57049;PMS7003;42935;50.966;16.992;2024-02-26T11:36:11;12;9;6
57049;PMS7003;42935;50.966;16.992;2024-02-26T11:39:31;8;7;5
57049;PMS7003;42935;50.966;16.992;2024-02-26T11:42:52;9;5;4
57049;PMS7003;42935;50.966;16.992;2024-02-26T11:46:41;10;8;6
57049;PMS7003;42935;50.966;16.992;2024-02-26T11:49:58;8;6;4
57049;PMS7003;42935;50.966;16.992;2024-02-26T11:53:21;10;8;6
57049;PMS7003;42935;50.966;16.992;2024-02-26T11:56:51;8;7;6
57049;PMS7003;42935;50.966;16.992;2024-02-26T12:00:13;8;7;5
57049;PMS7003;42935;50.966;16.992;2024-02-26T12:03:40;6;6;4
57049;PMS7003;42935;50.966;16.992;2024-02-26T12:07:10;8;6;5
57049;PMS7003;42935;50.966;16.992;2024-02-26T12:10:31;7;7;4
57049;PMS7003;42935;50.966;16.992;2024-02-26T12:13:58;12;6;4
57049;PMS7003;42935;50.966;16.992;2024-02-26T12:17:22;8;7;4
57049;PMS7003;42935;50.966;16.992;2024-02-26T12:20:41;8;5;3
57049;PMS7003;42935;50.966;16.992;2024-02-26T12:27:32;7;5;4
57049;PMS7003;42935;50.966;16.992;2024-02-26T12:30:52;7;7;6
57049;PMS7003;42935;50.966;16.992;2024-02-26T12:34:13;6;4;3
57049;PMS7003;42935;50.966;16.992;2024-02-26T12:37:35;8;7;5
57049;PMS7003;42935;50.966;16.992;2024-02-26T12:40:54;6;6;4
57049;PMS7003;42935;50.966;16.992;2024-02-26T12:44:16;8;7;5
57049;PMS7003;42935;50.966;16.992;2024-02-26T12:51:08;8;8;5
57049;PMS7003;42935;50.966;16.992;2024-02-26T12:58:33;9;8;5
57049;PMS7003;42935;50.966;16.992;2024-02-26T13:01:56;10;6;4
57049;PMS7003;42935;50.966;16.992;2024-02-26T13:05:18;8;7;6
57049;PMS7003;42935;50.966;16.992;2024-02-26T13:08:39;10;7;4
57049;PMS7003;42935;50.966;16.992;2024-02-26T13:12:29;7;5;4
57049;PMS7003;42935;50.966;16.992;2024-02-26T13:15:49;7;5;4
57049;PMS7003;42935;50.966;16.992;2024-02-26T13:19:13;10;8;6
57049;PMS7003;42935;50.966;16.992;2024-02-26T13:22:34;7;6;4
57049;PMS7003;42935;50.966;16.992;2024-02-26T13:25:56;6;5;4
57049;PMS7003;42935;50.966;16.992;2024-02-26T13:32:40;10;7;3
57049;PMS7003;42935;50.966;16.992;2024-02-26T13:36:04;9;7;6
57049;PMS7003;42935;50.966;16.992;2024-02-26T13:39:26;8;7;4
57049;PMS7003;42935;50.966;16.992;2024-02-26T13:42:52;9;8;6
57049;PMS7003;42935;50.966;16.992;2024-02-26T13:46:13;12;8;6
57049;PMS7003;42935;50.966;16.992;2024-02-26T13:49:33;11;8;5
57049;PMS7003;42935;50.966;16.992;2024-02-26T13:52:55;8;8;4
57049;PMS7003;42935;50.966;16.992;2024-02-26T13:56:48;10;7;5
57049;PMS7003;42935;50.966;16.992;2024-02-26T14:00:24;9;8;5
57049;PMS7003;42935;50.966;16.992;2024-02-26T14:03:41;9;6;4
57049;PMS7003;42935;50.966;16.992;2024-02-26T14:07:07;8;6;4
57049;PMS7003;42935;50.966;16.992;2024-02-26T14:10:27;7;5;4
57049;PMS7003;42935;50.966;16.992;2024-02-26T14:13:50;6;5;5
57049;PMS7003;42935;50.966;16.992;2024-02-26T14:17:12;7;6;4
57049;PMS7003;42935;50.966;16.992;2024-02-26T14:20:29;12;9;7
57049;PMS7003;42935;50.966;16.992;2024-02-26T14:23:45;12;9;6
57049;PMS7003;42935;50.966;16.992;2024-02-26T14:27:04;13;11;7
57049;PMS7003;42935;50.966;16.992;2024-02-26T14:30:26;21;16;13
57049;PMS7003;42935;50.966;16.992;2024-02-26T14:33:47;20;15;9
57049;PMS7003;42935;50.966;16.992;2024-02-26T14:37:08;13;11;8
57049;PMS7003;42935;50.966;16.992;2024-02-26T14:40:33;12;10;8
57049;PMS7003;42935;50.966;16.992;2024-02-26T14:44:03;14;11;8
57049;PMS7003;42935;50.966;16.992;2024-02-26T14:47:22;13;11;8
57049;PMS7003;42935;50.966;16.992;2024-02-26T14:50:47;16;12;9
57049;PMS7003;42935;50.966;16.992;2024-02-26T14:54:07;23;16;12
57049;PMS7003;42935;50.966;16.992;2024-02-26T14:57:27;22;15;11
57049;PMS7003;42935;50.966;16.992;2024-02-26T15:00:48;14;14;10
57049;PMS7003;42935;50.966;16.992;2024-02-26T15:04:09;15;13;9
57049;PMS7003;42935;50.966;16.992;2024-02-26T15:07:30;15;14;10
57049;PMS7003;42935;50.966;16.992;2024-02-26T15:11:02;16;13;10
57049;PMS7003;42935;50.966;16.992;2024-02-26T15:14:28;22;19;11
57049;PMS7003;42935;50.966;16.992;2024-02-26T15:17:49;27;24;15
57049;PMS7003;42935;50.966;16.992;2024-02-26T15:21:11;26;23;14
57049;PMS7003;42935;50.966;16.992;2024-02-26T15:24:33;24;19;13
57049;PMS7003;42935;50.966;16.992;2024-02-26T15:27:53;19;16;12
57049;PMS7003;42935;50.966;16.992;2024-02-26T15:31:19;17;14;11
57049;PMS7003;42935;50.966;16.992;2024-02-26T15:34:40;17;13;9
57049;PMS7003;42935;50.966;16.992;2024-02-26T15:38:04;16;11;8
57049;PMS7003;42935;50.966;16.992;2024-02-26T15:41:24;14;12;8
57049;PMS7003;42935;50.966;16.992;2024-02-26T15:44:45;18;14;9
57049;PMS7003;42935;50.966;16.992;2024-02-26T15:48:07;16;14;10
57049;PMS7003;42935;50.966;16.992;2024-02-26T15:51:59;19;15;10
57049;PMS7003;42935;50.966;16.992;2024-02-26T15:55:26;20;16;10
57049;PMS7003;42935;50.966;16.992;2024-02-26T15:58:45;25;20;12
57049;PMS7003;42935;50.966;16.992;2024-02-26T16:02:06;20;16;10
57049;PMS7003;42935;50.966;16.992;2024-02-26T16:05:28;20;16;12
57049;PMS7003;42935;50.966;16.992;2024-02-26T16:08:46;22;15;11
57049;PMS7003;42935;50.966;16.992;2024-02-26T16:12:12;25;17;12
57049;PMS7003;42935;50.966;16.992;2024-02-26T16:15:39;22;17;12
57049;PMS7003;42935;50.966;16.992;2024-02-26T16:19:08;17;15;10
57049;PMS7003;42935;50.966;16.992;2024-02-26T16:22:34;21;15;11
57049;PMS7003;42935;50.966;16.992;2024-02-26T16:25:54;17;14;9
57049;PMS7003;42935;50.966;16.992;2024-02-26T16:29:20;14;12;8
57049;PMS7003;42935;50.966;16.992;2024-02-26T16:32:47;76;53;31
57049;PMS7003;42935;50.966;16.992;2024-02-26T16:36:09;80;57;31
57049;PMS7003;42935;50.966;16.992;2024-02-26T16:39:35;126;94;51
57049;PMS7003;42935;50.966;16.992;2024-02-26T16:43:04;143;103;55
57049;PMS7003;42935;50.966;16.992;2024-02-26T16:46:33;162;115;57
57049;PMS7003;42935;50.966;16.992;2024-02-26T16:50:03;117;87;45
57049;PMS7003;42935;50.966;16.992;2024-02-26T16:53:32;86;60;35
57049;PMS7003;42935;50.966;16.992;2024-02-26T16:56:54;40;33;20
57049;PMS7003;42935;50.966;16.992;2024-02-26T17:00:18;41;31;20
57049;PMS7003;42935;50.966;16.992;2024-02-26T17:03:41;36;26;17
57049;PMS7003;42935;50.966;16.992;2024-02-26T17:07:01;32;24;14
57049;PMS7003;42935;50.966;16.992;2024-02-26T17:10:24;24;19;12
57049;PMS7003;42935;50.966;16.992;2024-02-26T17:13:46;25;17;12
57049;PMS7003;42935;50.966;16.992;2024-02-26T17:17:07;23;19;12
57049;PMS7003;42935;50.966;16.992;2024-02-26T17:20:27;24;17;12
57049;PMS7003;42935;50.966;16.992;2024-02-26T17:23:46;25;19;12
57049;PMS7003;42935;50.966;16.992;2024-02-26T17:27:07;20;18;13
57049;PMS7003;42935;50.966;16.992;2024-02-26T17:30:27;25;21;12
57049;PMS7003;42935;50.966;16.992;2024-02-26T17:33:51;23;18;11
57049;PMS7003;42935;50.966;16.992;2024-02-26T17:37:19;24;20;13
57049;PMS7003;42935;50.966;16.992;2024-02-26T17:40:41;30;24;14
57049;PMS7003;42935;50.966;16.992;2024-02-26T17:44:03;26;20;14
57049;PMS7003;42935;50.966;16.992;2024-02-26T17:47:25;29;21;14
57049;PMS7003;42935;50.966;16.992;2024-02-26T17:50:47;31;22;15
57049;PMS7003;42935;50.966;16.992;2024-02-26T17:54:12;32;23;16
57049;PMS7003;42935;50.966;16.992;2024-02-26T17:57:37;27;21;15
57049;PMS7003;42935;50.966;16.992;2024-02-26T18:00:57;28;21;15
57049;PMS7003;42935;50.966;16.992;2024-02-26T18:04:16;29;23;16
57049;PMS7003;42935;50.966;16.992;2024-02-26T18:07:45;52;40;24
57049;PMS7003;42935;50.966;16.992;2024-02-26T18:11:10;40;31;20
57049;PMS7003;42935;50.966;16.992;2024-02-26T18:14:35;63;47;29
57049;PMS7003;42935;50.966;16.992;2024-02-26T18:18:00;56;42;27
57049;PMS7003;42935;50.966;16.992;2024-02-26T18:21:22;73;54;33
57049;PMS7003;42935;50.966;16.992;2024-02-26T18:24:49;73;56;34
57049;PMS7003;42935;50.966;16.992;2024-02-26T18:28:15;99;76;43
57049;PMS7003;42935;50.966;16.992;2024-02-26T18:31:42;70;49;30
57049;PMS7003;42935;50.966;16.992;2024-02-26T18:35:03;69;48;30
57049;PMS7003;42935;50.966;16.992;2024-02-26T18:38:32;61;42;26
57049;PMS7003;42935;50.966;16.992;2024-02-26T18:41:55;58;43;26
57049;PMS7003;42935;50.966;16.992;2024-02-26T18:45:21;174;134;73
57049;PMS7003;42935;50.966;16.992;2024-02-26T18:48:50;132;101;57
57049;PMS7003;42935;50.966;16.992;2024-02-26T18:52:20;90;71;42
57049;PMS7003;42935;50.966;16.992;2024-02-26T18:55:45;92;71;41
57049;PMS7003;42935;50.966;16.992;2024-02-26T18:59:15;69;51;30
57049;PMS7003;42935;50.966;16.992;2024-02-26T19:02:39;76;53;33
57049;PMS7003;42935;50.966;16.992;2024-02-26T19:06:00;73;53;33
57049;PMS7003;42935;50.966;16.992;2024-02-26T19:09:29;71;51;32
57049;PMS7003;42935;50.966;16.992;2024-02-26T19:12:52;52;37;22
57049;PMS7003;42935;50.966;16.992;2024-02-26T19:16:14;52;38;24
57049;PMS7003;42935;50.966;16.992;2024-02-26T19:19:36;51;38;24
57049;PMS7003;42935;50.966;16.992;2024-02-26T19:23:02;49;36;23
57049;PMS7003;42935;50.966;16.992;2024-02-26T19:26:24;49;37;22
57049;PMS7003;42935;50.966;16.992;2024-02-26T19:29:48;41;33;22
57049;PMS7003;42935;50.966;16.992;2024-02-26T19:33:19;49;36;24
57049;PMS7003;42935;50.966;16.992;2024-02-26T19:36:37;40;32;21
57049;PMS7003;42935;50.966;16.992;2024-02-26T19:40:02;48;34;23
57049;PMS7003;42935;50.966;16.992;2024-02-26T19:43:25;63;46;28
57049;PMS7003;42935;50.966;16.992;2024-02-26T19:46:47;74;55;32
57049;PMS7003;42935;50.966;16.992;2024-02-26T19:50:15;62;47;29
57049;PMS7003;42935;50.966;16.992;2024-02-26T19:53:39;75;55;33
57049;PMS7003;42935;50.966;16.992;2024-02-26T19:57:06;73;52;32
57049;PMS7003;42935;50.966;16.992;2024-02-26T20:00:35;59;43;28
57049;PMS7003;42935;50.966;16.992;2024-02-26T20:03:57;68;50;30
57049;PMS7003;42935;50.966;16.992;2024-02-26T20:07:26;66;50;31
57049;PMS7003;42935;50.966;16.992;2024-02-26T20:10:58;72;52;33
57049;PMS7003;42935;50.966;16.992;2024-02-26T20:14:27;66;48;30
57049;PMS7003;42935;50.966;16.992;2024-02-26T20:17:54;73;55;33
57049;PMS7003;42935;50.966;16.992;2024-02-26T20:21:19;75;52;33
57049;PMS7003;42935;50.966;16.992;2024-02-26T20:24:42;67;46;28
57049;PMS7003;42935;50.966;16.992;2024-02-26T20:28:21;65;50;31
57049;PMS7003;42935;50.966;16.992;2024-02-26T20:31:42;59;45;29
57049;PMS7003;42935;50.966;16.992;2024-02-26T20:35:10;59;43;28
57049;PMS7003;42935;50.966;16.992;2024-02-26T20:38:31;64;50;31
57049;PMS7003;42935;50.966;16.992;2024-02-26T20:42:05;63;45;28
57049;PMS7003;42935;50.966;16.992;2024-02-26T20:45:31;67;49;30
57049;PMS7003;42935;50.966;16.992;2024-02-26T20:49:00;60;45;29
57049;PMS7003;42935;50.966;16.992;2024-02-26T20:52:27;56;43;27
57049;PMS7003;42935;50.966;16.992;2024-02-26T20:55:54;58;42;26
57049;PMS7003;42935;50.966;16.992;2024-02-26T20:59:15;58;45;28
57049;PMS7003;42935;50.966;16.992;2024-02-26T21:02:36;57;44;28
57049;PMS7003;42935;50.966;16.992;2024-02-26T21:06:35;58;43;28
57049;PMS7003;42935;50.966;16.992;2024-02-26T21:10:05;58;44;28
57049;PMS7003;42935;50.966;16.992;2024-02-26T21:13:38;61;47;29
57049;PMS7003;42935;50.966;16.992;2024-02-26T21:17:01;69;48;29
57049;PMS7003;42935;50.966;16.992;2024-02-26T21:20:21;63;48;31
57049;PMS7003;42935;50.966;16.992;2024-02-26T21:23:46;65;47;30
57049;PMS7003;42935;50.966;16.992;2024-02-26T21:27:07;61;47;29
57049;PMS7003;42935;50.966;16.992;2024-02-26T21:30:36;65;49;30
57049;PMS7003;42935;50.966;16.992;2024-02-26T21:34:01;65;50;31
57049;PMS7003;42935;50.966;16.992;2024-02-26T21:37:29;74;54;33
57049;PMS7003;42935;50.966;16.992;2024-02-26T21:40:49;72;54;33
57049;PMS7003;42935;50.966;16.992;2024-02-26T21:44:17;71;51;32
57049;PMS7003;42935;50.966;16.992;2024-02-26T21:47:37;69;51;32
57049;PMS7003;42935;50.966;16.992;2024-02-26T21:50:59;65;49;32
57049;PMS7003;42935;50.966;16.992;2024-02-26T21:54:31;65;50;31
57049;PMS7003;42935;50.966;16.992;2024-02-26T21:57:52;74;54;33
57049;PMS7003;42935;50.966;16.992;2024-02-26T22:01:16;69;50;31
57049;PMS7003;42935;50.966;16.992;2024-02-26T22:04:40;69;52;33
57049;PMS7003;42935;50.966;16.992;2024-02-26T22:08:02;80;58;35
57049;PMS7003;42935;50.966;16.992;2024-02-26T22:11:32;75;57;36
57049;PMS7003;42935;50.966;16.992;2024-02-26T22:14:54;85;59;37
57049;PMS7003;42935;50.966;16.992;2024-02-26T22:18:19;94;72;40
57049;PMS7003;42935;50.966;16.992;2024-02-26T22:21:42;93;73;43